Portada
METAR-TAF:

METAR-TAF

Aeroports :

Hrodna, Bielorússia

latitud: 53-36-06N, longitud: 024-03-18E, altitud: 135 m

Observació

L'informe es va fer fa 13 hores i 6 minuts, a les 13:30 UTC
Vent 6 kt del Nord/Nord-Est amb ràfegues de 12 kt
Temperatura 18°C
Humitat 49%
Pressió 1025 hPa
Visibilitat 10 km o més
Cel ennuvolat a una alçada de 3600 ft
Cel ennuvolat a una alçada de 6600 ft

METAR: UMMG 271330Z 02003G06MPS 9999 BKN036 BKN066 18/07 Q1025 R35/CLRD// NOSIG

Hora: 05:36 (02:36 UTC)

Pronòstic

L'informe es va fer fa 15 hores i 33 minuts, a les 11:03 UTC
Pronòstic vàlid del 27 a les 12 UTC al 27 a les 21 UTC
Vent 10 kt del Nord amb ràfegues de 19 kt
Visibilitat 10 km o més
Cel ennuvolat a una alçada de 2500 ft
Temporalment
l' 27 a les 12 UTC al 27 a les 18 UTC
Visibilitat: 8000 m
Núvols disperses a una alçada de 1700 ft, Cumulonimbus.
xàfecs de pluja

TAF: UMMG 271103Z 2712/2721 35005G10MPS 9999 BKN025 TEMPO 2712/2718 8000 -SHRA SCT017CB

Observacions i pronòstics meteorològics de més de 4000 aeroports (METAR i TAF).

Les estacions disponibles són els punts grocs i vermells al mapa.

Posi el ratolí al punt desitjat per veure el nom de l'estació.

Feu clic per veure les observacions i els pronòstics meteorològics.

Per canviar el mapa: feu clic els botons verds amb una creu de color negre per apropar; al botó verd amb un guió per allunyar la imatge; o en les fletxes verdes per a mapes adjacents.


METAR-TAF: